createdAt,value
2023-05-15T00:01:30.870Z,93587.66
2023-05-15T00:03:57.591Z,93577.97
2023-05-15T00:06:24.376Z,93574.88
2023-05-15T00:08:51.043Z,93575.25
2023-05-15T00:11:17.775Z,93589.34
2023-05-15T00:13:44.539Z,93578.47
2023-05-15T00:16:11.218Z,93573.84
2023-05-15T00:18:37.953Z,93567.66
2023-05-15T00:21:04.708Z,93567.69
2023-05-15T00:23:31.383Z,93573.91
2023-05-15T00:25:58.065Z,93569.28
2023-05-15T00:28:24.805Z,93569.66
2023-05-15T00:30:52.312Z,93572.38
2023-05-15T00:33:19.065Z,93561.91
2023-05-15T00:35:46.098Z,93560.00
2023-05-15T00:38:12.980Z,93561.97
2023-05-15T00:40:41.144Z,93557.31
2023-05-15T00:43:10.036Z,93556.94
2023-05-15T00:45:38.894Z,93558.91
2023-05-15T00:48:07.528Z,93561.28
2023-05-15T00:50:34.750Z,93549.22
2023-05-15T00:53:03.184Z,93555.84
2023-05-15T00:55:31.288Z,93558.19
2023-05-15T00:57:58.457Z,93551.56
2023-05-15T01:00:25.788Z,93548.13
2023-05-15T01:02:54.606Z,93546.59
2023-05-15T01:05:21.477Z,93544.25
2023-05-15T01:07:54.948Z,93541.91
2023-05-15T01:10:22.085Z,93540.75
2023-05-15T01:12:54.176Z,93532.19
2023-05-15T01:15:21.073Z,93539.19
2023-05-15T01:17:47.693Z,93541.97
2023-05-15T01:20:18.661Z,93538.81
2023-05-15T01:23:03.165Z,93549.34
2023-05-15T01:25:48.692Z,93550.53
2023-05-15T01:28:20.626Z,93550.53
2023-05-15T01:30:48.761Z,93557.19
2023-05-15T01:33:26.265Z,93547.44
2023-05-15T01:35:59.176Z,93561.47
2023-05-15T01:38:36.928Z,93561.47
2023-05-15T01:41:31.778Z,93558.72
2023-05-15T01:44:11.083Z,93565.28
2023-05-15T01:46:45.938Z,93563.06
2023-05-15T01:49:16.262Z,93565.03
2023-05-15T01:51:45.920Z,93566.94
2023-05-15T01:54:14.964Z,93561.47
2023-05-15T01:56:45.093Z,93563.00
2023-05-15T01:59:16.625Z,93561.38
2023-05-15T02:01:45.910Z,93560.59
2023-05-15T02:04:13.561Z,93566.78
2023-05-15T02:06:41.059Z,93564.44
2023-05-15T02:09:09.183Z,93564.44
2023-05-15T02:11:37.100Z,93568.69
2023-05-15T02:14:04.832Z,93566.63
2023-05-15T02:16:31.582Z,93567.75
2023-05-15T02:18:58.350Z,93563.47
2023-05-15T02:21:25.002Z,93568.13
2023-05-15T02:23:51.598Z,93559.56
2023-05-15T02:26:43.800Z,93562.91
2023-05-15T02:29:36.946Z,93558.31
2023-05-15T02:32:22.488Z,93563.34
2023-05-15T02:35:16.830Z,93564.13
2023-05-15T02:37:48.114Z,93563.28
2023-05-15T02:40:16.574Z,93553.47
2023-05-15T02:42:46.499Z,93558.22
2023-05-15T02:45:14.060Z,93554.66
2023-05-15T02:47:41.608Z,93555.00
2023-05-15T02:50:09.732Z,93550.28
2023-05-15T02:52:36.382Z,93547.94
2023-05-15T02:55:03.266Z,93547.94
2023-05-15T02:57:30.278Z,93543.59
2023-05-15T02:59:57.496Z,93548.22
2023-05-15T03:02:24.155Z,93545.47
2023-05-15T03:04:50.992Z,93539.28
2023-05-15T03:07:17.698Z,93540.09
2023-05-15T03:09:44.294Z,93536.94
2023-05-15T03:12:11.309Z,93538.94
2023-05-15T03:14:37.934Z,93542.00
2023-05-15T03:17:04.960Z,93537.28
2023-05-15T03:19:32.015Z,93532.28
2023-05-15T03:21:58.692Z,93543.09
2023-05-15T03:24:25.363Z,93532.13
2023-05-15T03:26:51.972Z,93533.25
2023-05-15T03:29:18.871Z,93521.53
2023-05-15T03:31:45.576Z,93519.22
2023-05-15T03:34:12.218Z,93522.69
2023-05-15T03:36:38.940Z,93523.06
2023-05-15T03:39:05.591Z,93526.97
2023-05-15T03:41:32.186Z,93534.75
2023-05-15T03:43:58.841Z,93544.94
2023-05-15T03:46:25.711Z,93547.00
2023-05-15T03:48:54.534Z,93542.19
2023-05-15T03:51:21.370Z,93553.53
2023-05-15T03:53:48.029Z,93565.19
2023-05-15T03:56:14.739Z,93560.03
2023-05-15T03:58:41.416Z,93549.81
2023-05-15T04:01:08.121Z,93546.59
2023-05-15T04:03:34.782Z,93551.56
2023-05-15T04:06:01.534Z,93535.84
2023-05-15T04:08:28.322Z,93538.22
2023-05-15T04:10:54.994Z,93532.81
2023-05-15T04:13:21.597Z,93521.53
2023-05-15T04:15:48.789Z,93536.41
2023-05-15T04:18:15.458Z,93528.16
2023-05-15T04:20:42.165Z,93535.03
2023-05-15T04:23:08.799Z,93540.06
2023-05-15T04:25:35.604Z,93531.81
2023-05-15T04:28:02.655Z,93543.91
2023-05-15T04:30:29.381Z,93543.09
2023-05-15T04:32:56.228Z,93532.47
2023-05-15T04:35:23.216Z,93557.59
2023-05-15T04:37:49.947Z,93540.25
2023-05-15T04:40:16.942Z,93555.41
2023-05-15T04:42:43.702Z,93554.97
2023-05-15T04:45:10.895Z,93552.53
2023-05-15T04:47:37.884Z,93551.59
2023-05-15T04:50:04.990Z,93551.94
2023-05-15T04:52:32.303Z,93558.84
2023-05-15T04:54:59.287Z,93555.84
2023-05-15T04:57:26.573Z,93563.78
2023-05-15T04:59:53.299Z,93565.22
2023-05-15T05:02:22.429Z,93560.06
2023-05-15T05:04:49.283Z,93565.78
2023-05-15T05:07:16.147Z,93576.69
2023-05-15T05:09:42.985Z,93576.53
2023-05-15T05:12:10.005Z,93574.56
2023-05-15T05:14:37.151Z,93578.72
2023-05-15T05:17:04.170Z,93576.28
2023-05-15T05:19:30.995Z,93578.22
2023-05-15T05:22:01.236Z,93578.53
2023-05-15T05:24:28.375Z,93584.91
2023-05-15T05:26:55.210Z,93579.13
2023-05-15T05:29:21.834Z,93578.03
2023-05-15T05:31:48.537Z,93578.25
2023-05-15T05:34:15.253Z,93572.59
2023-05-15T05:36:41.979Z,93570.81
2023-05-15T05:39:08.668Z,93573.66
2023-05-15T05:41:35.633Z,93570.38
2023-05-15T05:44:02.442Z,93575.28
2023-05-15T05:46:29.379Z,93571.50
2023-05-15T05:48:56.160Z,93579.06
2023-05-15T05:51:22.819Z,93580.28
2023-05-15T05:53:49.510Z,93576.75
2023-05-15T05:56:16.208Z,93574.72
2023-05-15T05:58:43.207Z,93575.94
2023-05-15T06:01:10.196Z,93573.22
2023-05-15T06:03:38.358Z,93570.63
2023-05-15T06:06:05.842Z,93566.03
2023-05-15T06:08:32.493Z,93567.72
2023-05-15T06:10:59.114Z,93563.13
2023-05-15T06:13:25.816Z,93566.28
2023-05-15T06:15:52.525Z,93569.69
2023-05-15T06:18:19.194Z,93567.50
2023-05-15T06:20:46.850Z,93566.00
2023-05-15T06:23:13.468Z,93564.41
2023-05-15T06:25:40.402Z,93565.38
2023-05-15T06:28:07.148Z,93575.03
2023-05-15T06:30:33.929Z,93575.25
2023-05-15T06:33:01.083Z,93573.28
2023-05-15T06:35:27.803Z,93565.63
2023-05-15T06:37:55.410Z,93578.75
2023-05-15T06:40:23.358Z,93573.41
2023-05-15T06:42:50.213Z,93577.31
2023-05-15T06:45:17.053Z,93565.22
2023-05-15T06:47:43.770Z,93566.75
2023-05-15T06:50:10.723Z,93561.19
2023-05-15T06:52:37.402Z,93560.28
2023-05-15T06:55:04.316Z,93562.47
2023-05-15T06:57:31.032Z,93558.56
2023-05-15T06:59:57.629Z,93563.59
2023-05-15T07:02:24.637Z,93566.41
2023-05-15T07:04:51.562Z,93557.47
2023-05-15T07:07:18.402Z,93569.78
2023-05-15T07:09:48.359Z,93569.13
2023-05-15T07:12:15.598Z,93558.09
2023-05-15T07:14:42.328Z,93566.56
2023-05-15T07:17:09.059Z,93571.28
2023-05-15T07:19:35.728Z,93561.44
2023-05-15T07:22:03.467Z,93571.75
2023-05-15T07:24:30.391Z,93576.22
2023-05-15T07:26:58.868Z,93576.19
2023-05-15T07:29:26.202Z,93571.25
2023-05-15T07:31:53.519Z,93576.69
2023-05-15T07:34:20.717Z,93568.38
2023-05-15T07:36:47.526Z,93569.50
2023-05-15T07:39:14.184Z,93566.13
2023-05-15T07:41:41.021Z,93567.97
2023-05-15T07:44:07.859Z,93569.88
2023-05-15T07:46:34.923Z,93571.16
2023-05-15T07:49:01.918Z,93571.72
2023-05-15T07:51:28.737Z,93578.59
2023-05-15T07:53:55.697Z,93571.69
2023-05-15T07:56:22.418Z,93566.19
2023-05-15T07:58:49.159Z,93567.34
2023-05-15T08:01:16.125Z,93561.03
2023-05-15T08:03:43.023Z,93563.31
2023-05-15T08:06:09.838Z,93557.78
2023-05-15T08:08:36.640Z,93564.03
2023-05-15T08:11:03.283Z,93562.84
2023-05-15T08:13:30.026Z,93571.16
2023-05-15T08:15:56.759Z,93565.91
2023-05-15T08:18:23.450Z,93564.19
2023-05-15T08:20:50.075Z,93562.28
2023-05-15T08:23:16.673Z,93557.06
2023-05-15T08:25:43.281Z,93549.53
2023-05-15T08:28:10.838Z,93557.72
2023-05-15T08:30:37.848Z,93567.13
2023-05-15T08:33:04.690Z,93565.66
2023-05-15T08:35:31.634Z,93570.22
2023-05-15T08:37:59.185Z,93571.00
2023-05-15T08:43:03.235Z,93559.59
2023-05-15T08:45:30.619Z,93564.19
2023-05-15T08:47:59.194Z,93562.97
2023-05-15T08:50:26.478Z,93561.09
2023-05-15T08:52:58.160Z,93561.03
2023-05-15T08:55:25.444Z,93556.19
2023-05-15T08:57:54.518Z,93546.59
2023-05-15T09:00:22.732Z,93548.50
2023-05-15T09:02:49.580Z,93538.66
2023-05-15T09:05:16.356Z,93535.28
2023-05-15T09:07:45.086Z,93537.50
2023-05-15T09:10:13.628Z,93532.72
2023-05-15T09:12:44.547Z,93517.22
2023-05-15T09:15:17.641Z,93520.88
2023-05-15T09:17:45.946Z,93522.81
2023-05-15T09:20:29.397Z,93516.38
2023-05-15T09:22:57.553Z,93514.03
2023-05-15T09:25:44.872Z,93523.19
2023-05-15T09:28:28.031Z,93513.97
2023-05-15T09:31:13.533Z,93519.28
2023-05-15T09:33:42.264Z,93525.19
2023-05-15T09:36:09.806Z,93522.66
2023-05-15T09:38:43.723Z,93515.34
2023-05-15T09:41:13.177Z,93516.19
2023-05-15T09:43:41.300Z,93506.09
2023-05-15T09:46:08.678Z,93507.16
2023-05-15T09:48:35.886Z,93500.28
2023-05-15T09:51:02.960Z,93491.34
2023-05-15T09:53:30.597Z,93495.66
2023-05-15T09:55:57.270Z,93498.47
2023-05-15T09:58:23.923Z,93495.94
2023-05-15T10:00:50.611Z,93488.69
2023-05-15T10:03:20.116Z,93492.31
2023-05-15T10:05:47.178Z,93497.38
2023-05-15T10:08:15.881Z,93490.50
2023-05-15T10:10:43.741Z,93496.81
2023-05-15T10:13:11.816Z,93493.94
2023-05-15T10:15:39.796Z,93490.47
2023-05-15T10:18:07.704Z,93489.25
2023-05-15T10:20:37.878Z,93482.84
2023-05-15T10:23:06.481Z,93477.34
2023-05-15T10:25:40.960Z,93470.84
2023-05-15T10:28:12.123Z,93467.06
2023-05-15T10:30:39.133Z,93465.22
2023-05-15T10:33:07.028Z,93464.75
2023-05-15T10:35:39.560Z,93461.50
2023-05-15T10:38:07.225Z,93469.81
2023-05-15T10:40:37.056Z,93472.66
2023-05-15T10:43:03.786Z,93486.06
2023-05-15T10:45:31.619Z,93478.84
2023-05-15T10:47:59.586Z,93472.28
2023-05-15T10:50:27.443Z,93465.47
2023-05-15T10:52:55.607Z,93470.34
2023-05-15T10:55:23.022Z,93467.03
2023-05-15T10:57:50.057Z,93475.16
2023-05-15T11:00:22.413Z,93480.09
2023-05-15T11:02:50.942Z,93465.78
2023-05-15T11:05:17.628Z,93473.97
2023-05-15T11:07:44.353Z,93460.09
2023-05-15T11:10:28.988Z,93452.53
2023-05-15T11:12:59.403Z,93437.97
2023-05-15T11:15:26.143Z,93446.81
2023-05-15T11:18:06.020Z,93436.38
2023-05-15T11:20:40.108Z,93431.63
2023-05-15T11:23:07.040Z,93440.69
2023-05-15T11:25:35.387Z,93445.13
2023-05-15T11:28:05.387Z,93435.84
2023-05-15T11:30:37.802Z,93435.47
2023-05-15T11:33:11.530Z,93438.31
2023-05-15T11:35:43.274Z,93446.47
2023-05-15T11:38:10.202Z,93451.75
2023-05-15T11:40:46.752Z,93464.50
2023-05-15T11:43:19.383Z,93475.38
2023-05-15T11:45:48.913Z,93475.72
2023-05-15T11:48:17.121Z,93481.72
2023-05-15T11:50:45.444Z,93484.34
2023-05-15T11:53:12.607Z,93476.09
2023-05-15T11:55:43.601Z,93485.66
2023-05-15T11:58:18.010Z,93473.72
2023-05-15T12:00:46.989Z,93470.53
2023-05-15T12:03:26.068Z,93476.84
2023-05-15T12:05:59.531Z,93467.63
2023-05-15T12:08:32.529Z,93468.88
2023-05-15T12:11:00.546Z,93469.16
2023-05-15T12:13:27.959Z,93469.63
2023-05-15T12:15:55.884Z,93471.59
2023-05-15T12:18:22.949Z,93462.19
2023-05-15T12:20:52.176Z,93458.47
2023-05-15T12:23:21.817Z,93458.16
2023-05-15T12:25:51.078Z,93456.44
2023-05-15T12:28:18.018Z,93451.94
2023-05-15T12:30:45.116Z,93451.78
2023-05-15T12:33:12.205Z,93440.63
2023-05-15T12:35:44.397Z,93445.59
2023-05-15T12:38:18.072Z,93448.31
2023-05-15T12:40:49.599Z,93441.81
2023-05-15T12:43:16.338Z,93451.59
2023-05-15T12:45:43.119Z,93441.69
2023-05-15T12:48:14.875Z,93435.38
2023-05-15T12:50:45.095Z,93429.94
2023-05-15T12:53:14.300Z,93437.53
2023-05-15T12:55:41.762Z,93428.72
2023-05-15T12:58:10.558Z,93427.47
2023-05-15T13:00:40.519Z,93418.03
2023-05-15T13:03:10.863Z,93420.91
2023-05-15T13:05:38.571Z,93412.59
2023-05-15T13:08:09.569Z,93417.63
2023-05-15T13:10:38.064Z,93422.88
2023-05-15T13:13:04.811Z,93413.38
2023-05-15T13:15:37.310Z,93407.00
2023-05-15T13:18:10.382Z,93412.94
2023-05-15T13:20:44.836Z,93419.25
2023-05-15T13:23:15.033Z,93416.94
2023-05-15T13:25:42.513Z,93420.97
2023-05-15T13:28:10.878Z,93422.97
2023-05-15T13:30:41.870Z,93429.81
2023-05-15T13:33:10.880Z,93418.28
2023-05-15T13:35:38.810Z,93422.78
2023-05-15T13:38:05.672Z,93426.94
2023-05-15T13:40:38.599Z,93431.59
2023-05-15T13:43:08.213Z,93426.81
2023-05-15T13:45:36.735Z,93429.81
2023-05-15T13:48:04.265Z,93424.44
2023-05-15T13:50:31.065Z,93423.84
2023-05-15T13:52:57.720Z,93423.19
2023-05-15T13:55:26.017Z,93415.56
2023-05-15T13:57:53.303Z,93423.81
2023-05-15T14:00:20.527Z,93419.22
2023-05-15T14:02:47.407Z,93422.66
2023-05-15T14:05:15.738Z,93427.19
2023-05-15T14:07:42.604Z,93434.84
2023-05-15T14:10:10.436Z,93431.34
2023-05-15T14:12:38.045Z,93432.38
2023-05-15T14:15:05.294Z,93430.97
2023-05-15T14:17:32.068Z,93427.25
2023-05-15T14:19:58.809Z,93429.81
2023-05-15T14:22:25.541Z,93423.34
2023-05-15T14:24:55.089Z,93429.66
2023-05-15T14:27:21.903Z,93434.19
2023-05-15T14:29:49.493Z,93434.44
2023-05-15T14:32:16.600Z,93424.81
2023-05-15T14:34:43.810Z,93423.78
2023-05-15T14:37:10.610Z,93428.41
2023-05-15T14:39:37.333Z,93425.03
2023-05-15T14:42:04.598Z,93426.56
2023-05-15T14:44:31.238Z,93444.38
2023-05-15T14:47:12.710Z,93439.72
2023-05-15T14:49:39.717Z,93448.47
2023-05-15T14:52:09.000Z,93449.41
2023-05-15T14:54:36.404Z,93447.00
2023-05-15T14:57:03.828Z,93459.03
2023-05-15T14:59:30.579Z,93455.41
2023-05-15T15:01:57.419Z,93457.44
2023-05-15T15:04:24.298Z,93450.19
2023-05-15T15:06:50.976Z,93451.44
2023-05-15T15:09:20.218Z,93442.22
2023-05-15T15:11:47.738Z,93461.91
2023-05-15T15:14:14.393Z,93472.22
2023-05-15T15:16:41.400Z,93466.06
2023-05-15T15:19:08.253Z,93471.38
2023-05-15T15:21:36.492Z,93467.09
2023-05-15T15:24:03.325Z,93472.47
2023-05-15T15:26:30.095Z,93472.50
2023-05-15T15:29:00.797Z,93481.75
2023-05-15T15:31:30.937Z,93478.66
2023-05-15T15:33:57.895Z,93472.00
2023-05-15T15:36:25.156Z,93474.13
2023-05-15T15:38:52.044Z,93469.34
2023-05-15T15:41:19.194Z,93481.81
2023-05-15T15:43:45.911Z,93481.44
2023-05-15T15:46:12.682Z,93477.00
2023-05-15T15:48:39.344Z,93476.22
2023-05-15T15:51:06.101Z,93486.19
2023-05-15T15:53:34.584Z,93484.22
2023-05-15T15:56:01.549Z,93473.59
2023-05-15T15:58:29.614Z,93480.38
2023-05-15T16:00:57.008Z,93485.06
2023-05-15T16:03:24.138Z,93488.16
2023-05-15T16:05:51.660Z,93483.47
2023-05-15T16:08:18.386Z,93481.59
2023-05-15T16:10:45.062Z,93488.81
2023-05-15T16:13:11.906Z,93495.53
2023-05-15T16:15:38.557Z,93487.69
2023-05-15T16:18:05.390Z,93486.47
2023-05-15T16:20:34.318Z,93478.63
2023-05-15T16:23:01.906Z,93478.31
2023-05-15T16:25:28.724Z,93483.63
2023-05-15T16:27:55.453Z,93476.50
2023-05-15T16:30:23.390Z,93480.66
2023-05-15T16:32:53.118Z,93487.13
2023-05-15T16:35:22.227Z,93481.63
2023-05-15T16:37:49.145Z,93486.97
2023-05-15T16:42:43.221Z,93488.06
2023-05-15T16:45:10.493Z,93490.53
2023-05-15T16:47:39.191Z,93499.22
2023-05-15T16:50:07.140Z,93495.19
2023-05-15T16:52:33.966Z,93496.56
2023-05-15T16:55:00.691Z,93498.69
2023-05-15T16:57:27.415Z,93495.63
2023-05-15T16:59:54.396Z,93506.13
2023-05-15T17:02:21.246Z,93508.59
2023-05-15T17:04:48.103Z,93502.63
2023-05-15T17:07:14.759Z,93502.19
2023-05-15T17:09:43.088Z,93498.66
2023-05-15T17:12:10.023Z,93510.84
2023-05-15T17:14:36.752Z,93508.66
2023-05-15T17:17:03.820Z,93509.91
2023-05-15T17:19:33.722Z,93504.91
2023-05-15T17:22:00.421Z,93510.56
2023-05-15T17:24:35.317Z,93510.97
2023-05-15T17:27:09.410Z,93502.13
2023-05-15T17:29:36.337Z,93508.88
2023-05-15T17:32:03.307Z,93505.81
2023-05-15T17:34:30.372Z,93511.25
2023-05-15T17:36:56.990Z,93512.03
2023-05-15T17:39:23.729Z,93508.28
2023-05-15T17:41:50.518Z,93513.28
2023-05-15T17:44:17.416Z,93509.00
2023-05-15T17:46:44.124Z,93508.75
2023-05-15T17:49:10.906Z,93510.81
2023-05-15T17:51:37.884Z,93511.25
2023-05-15T17:54:04.665Z,93506.31
2023-05-15T17:56:31.383Z,93515.78
2023-05-15T17:58:58.061Z,93514.09
2023-05-15T18:01:24.662Z,93516.31
2023-05-15T18:03:51.427Z,93519.06
2023-05-15T18:06:18.072Z,93519.94
2023-05-15T18:08:45.294Z,93521.47
2023-05-15T18:11:21.380Z,93529.44
2023-05-15T18:13:49.335Z,93535.06
2023-05-15T18:16:17.901Z,93535.75
2023-05-15T18:18:44.836Z,93539.91
2023-05-15T18:21:11.579Z,93535.19
2023-05-15T18:23:38.229Z,93538.47
2023-05-15T18:26:04.881Z,93542.63
2023-05-15T18:28:31.511Z,93551.94
2023-05-15T18:30:58.886Z,93551.09
2023-05-15T18:33:25.520Z,93550.03
2023-05-15T18:35:53.354Z,93554.88
2023-05-15T18:38:20.485Z,93558.22
2023-05-15T18:40:47.628Z,93555.84
2023-05-15T18:43:14.505Z,93555.53
2023-05-15T18:45:41.492Z,93557.59
2023-05-15T18:48:08.338Z,93560.88
2023-05-15T18:50:35.518Z,93563.81
2023-05-15T18:53:02.437Z,93564.94
2023-05-15T18:55:30.104Z,93571.97
2023-05-15T18:57:56.794Z,93571.72
2023-05-15T19:00:37.190Z,93580.75
2023-05-15T19:03:05.836Z,93584.94
2023-05-15T19:05:33.992Z,93585.91
2023-05-15T19:08:01.315Z,93597.09
2023-05-15T19:10:31.024Z,93598.53
2023-05-15T19:12:58.256Z,93601.94
2023-05-15T19:15:25.426Z,93607.19
2023-05-15T19:17:52.384Z,93622.69
2023-05-15T19:20:19.372Z,93626.91
2023-05-15T19:22:46.302Z,93632.94
2023-05-15T19:25:13.182Z,93632.06
2023-05-15T19:27:40.065Z,93634.38
2023-05-15T19:30:07.810Z,93637.16
2023-05-15T19:32:34.733Z,93646.38
2023-05-15T19:35:01.744Z,93642.97
2023-05-15T19:37:28.441Z,93647.50
2023-05-15T19:39:55.125Z,93650.41
2023-05-15T19:42:21.769Z,93650.19
2023-05-15T19:44:48.468Z,93647.84
2023-05-15T19:47:15.194Z,93648.59
2023-05-15T19:49:41.890Z,93642.72
2023-05-15T19:52:08.647Z,93641.59
2023-05-15T19:54:35.342Z,93643.13
2023-05-15T19:57:03.021Z,93649.38
2023-05-15T19:59:29.952Z,93654.47
2023-05-15T20:01:56.940Z,93647.53
2023-05-15T20:04:23.711Z,93641.81
2023-05-15T20:06:50.516Z,93648.13
2023-05-15T20:09:17.457Z,93639.34
2023-05-15T20:11:45.156Z,93637.16
2023-05-15T20:14:11.922Z,93643.03
2023-05-15T20:16:38.784Z,93642.44
2023-05-15T20:19:05.903Z,93640.41
2023-05-15T20:21:33.006Z,93630.50
2023-05-15T20:23:59.708Z,93636.28
2023-05-15T20:26:26.549Z,93630.06
2023-05-15T20:28:53.242Z,93627.53
2023-05-15T20:31:19.873Z,93621.88
2023-05-15T20:33:46.713Z,93632.41
2023-05-15T20:36:14.460Z,93627.91
2023-05-15T20:38:41.558Z,93620.34
2023-05-15T20:41:08.286Z,93627.72
2023-05-15T20:43:35.164Z,93626.06
2023-05-15T20:46:01.914Z,93621.06
2023-05-15T20:48:28.624Z,93624.72
2023-05-15T20:50:55.997Z,93623.81
2023-05-15T20:53:22.962Z,93622.09
2023-05-15T20:55:49.861Z,93621.69
2023-05-15T20:58:16.643Z,93618.94
2023-05-15T21:00:43.342Z,93618.41
2023-05-15T21:03:11.096Z,93623.38
2023-05-15T21:05:37.807Z,93626.41
2023-05-15T21:08:04.625Z,93629.16
2023-05-15T21:10:31.298Z,93635.75
2023-05-15T21:12:59.408Z,93623.25
2023-05-15T21:15:26.333Z,93615.31
2023-05-15T21:17:53.021Z,93625.31
2023-05-15T21:20:19.772Z,93625.50
2023-05-15T21:22:46.368Z,93620.13
2023-05-15T21:25:13.108Z,93619.50
2023-05-15T21:27:40.466Z,93619.38
2023-05-15T21:30:07.937Z,93617.28
2023-05-15T21:32:34.617Z,93608.91
2023-05-15T21:35:01.290Z,93611.16
2023-05-15T21:37:27.895Z,93613.78
2023-05-15T21:39:54.674Z,93617.69
2023-05-15T21:42:22.111Z,93611.75
2023-05-15T21:44:48.806Z,93607.53
2023-05-15T21:47:15.461Z,93618.41
2023-05-15T21:49:42.056Z,93614.13
2023-05-15T21:52:08.892Z,93616.09
2023-05-15T21:54:35.584Z,93616.22
2023-05-15T21:57:02.297Z,93611.50
2023-05-15T21:59:28.917Z,93613.81
2023-05-15T22:01:55.864Z,93614.19
2023-05-15T22:04:22.868Z,93617.81
2023-05-15T22:06:49.471Z,93608.75
2023-05-15T22:09:16.186Z,93613.88
2023-05-15T22:11:42.834Z,93618.59
2023-05-15T22:14:09.888Z,93616.25
2023-05-15T22:16:36.577Z,93621.09
2023-05-15T22:19:03.921Z,93621.22
2023-05-15T22:21:32.187Z,93621.44
2023-05-15T22:23:58.914Z,93621.88
2023-05-15T22:26:25.640Z,93621.44
2023-05-15T22:28:55.914Z,93629.16
2023-05-15T22:31:23.060Z,93624.19
2023-05-15T22:33:49.874Z,93616.78
2023-05-15T22:36:16.754Z,93618.81
2023-05-15T22:38:43.478Z,93617.94
2023-05-15T22:41:10.237Z,93623.28
2023-05-15T22:43:38.177Z,93616.50
2023-05-15T22:46:05.092Z,93615.88
2023-05-15T22:48:32.566Z,93613.09
2023-05-15T22:50:59.336Z,93611.25
2023-05-15T22:53:26.032Z,93609.41
2023-05-15T22:55:52.736Z,93610.13
2023-05-15T22:58:20.134Z,93606.22
2023-05-15T23:00:46.963Z,93613.63
2023-05-15T23:03:13.664Z,93615.66
2023-05-15T23:05:40.573Z,93614.44
2023-05-15T23:08:07.321Z,93614.03
2023-05-15T23:10:34.240Z,93609.78
2023-05-15T23:13:01.034Z,93613.00
2023-05-15T23:15:27.949Z,93616.19
2023-05-15T23:17:54.758Z,93609.94
2023-05-15T23:20:21.498Z,93608.81
2023-05-15T23:22:48.110Z,93610.47
2023-05-15T23:25:14.821Z,93615.66
2023-05-15T23:27:41.559Z,93610.63
2023-05-15T23:30:08.759Z,93612.28
2023-05-15T23:32:35.626Z,93612.72
2023-05-15T23:35:02.569Z,93614.66
2023-05-15T23:37:29.279Z,93609.63
2023-05-15T23:39:56.004Z,93605.78
2023-05-15T23:42:23.375Z,93612.50
2023-05-15T23:44:50.230Z,93612.19
2023-05-15T23:47:16.952Z,93608.25
2023-05-15T23:49:43.804Z,93604.00
2023-05-15T23:52:10.527Z,93608.25
2023-05-15T23:54:37.249Z,93610.59
2023-05-15T23:57:04.031Z,93607.50
2023-05-15T23:59:30.991Z,93606.38
